sensor_id;sensor_type;location;lat;lon;timestamp;pressure;altitude;pressure_sealevel;temperature;humidity
77171;BME280;66144;50.020;14.422;2023-03-23T00:01:48;98302.75;;;10.94;63.13
77171;BME280;66144;50.020;14.422;2023-03-23T00:04:16;98301.72;;;10.95;64.10
77171;BME280;66144;50.020;14.422;2023-03-23T00:06:42;98299.88;;;10.96;63.95
77171;BME280;66144;50.020;14.422;2023-03-23T00:09:11;98299.88;;;10.96;63.26
77171;BME280;66144;50.020;14.422;2023-03-23T00:11:37;98295.44;;;10.96;63.69
77171;BME280;66144;50.020;14.422;2023-03-23T00:14:04;98297.53;;;10.94;64.11
77171;BME280;66144;50.020;14.422;2023-03-23T00:16:32;98297.00;;;10.92;64.49
77171;BME280;66144;50.020;14.422;2023-03-23T00:19:00;98294.63;;;10.91;64.24
77171;BME280;66144;50.020;14.422;2023-03-23T00:21:29;98296.19;;;10.87;64.50
77171;BME280;66144;50.020;14.422;2023-03-23T00:24:06;98298.03;;;10.86;63.34
77171;BME280;66144;50.020;14.422;2023-03-23T00:26:34;98294.38;;;10.87;63.59
77171;BME280;66144;50.020;14.422;2023-03-23T00:29:02;98294.63;;;10.86;63.76
77171;BME280;66144;50.020;14.422;2023-03-23T00:31:28;98291.75;;;10.87;63.68
77171;BME280;66144;50.020;14.422;2023-03-23T00:34:03;98292.53;;;10.88;63.11
77171;BME280;66144;50.020;14.422;2023-03-23T00:36:30;98293.84;;;10.90;64.27
77171;BME280;66144;50.020;14.422;2023-03-23T00:38:56;98295.66;;;10.85;64.88
77171;BME280;66144;50.020;14.422;2023-03-23T00:41:27;98295.16;;;10.88;63.72
77171;BME280;66144;50.020;14.422;2023-03-23T00:43:57;98288.34;;;10.82;63.82
77171;BME280;66144;50.020;14.422;2023-03-23T00:46:26;98285.50;;;10.88;63.19
77171;BME280;66144;50.020;14.422;2023-03-23T00:48:53;98281.03;;;10.89;64.02
77171;BME280;66144;50.020;14.422;2023-03-23T00:51:19;98277.66;;;10.88;63.24
77171;BME280;66144;50.020;14.422;2023-03-23T00:53:45;98274.50;;;10.86;62.75
77171;BME280;66144;50.020;14.422;2023-03-23T00:56:11;98263.81;;;10.93;63.79
77171;BME280;66144;50.020;14.422;2023-03-23T00:58:37;98263.00;;;10.87;62.95
77171;BME280;66144;50.020;14.422;2023-03-23T01:01:02;98255.72;;;10.89;63.09
77171;BME280;66144;50.020;14.422;2023-03-23T01:03:28;98266.69;;;10.91;62.85
77171;BME280;66144;50.020;14.422;2023-03-23T01:05:55;98257.28;;;10.95;62.54
77171;BME280;66144;50.020;14.422;2023-03-23T01:08:21;98254.16;;;10.93;62.43
77171;BME280;66144;50.020;14.422;2023-03-23T01:10:48;98254.16;;;10.93;62.80
77171;BME280;66144;50.020;14.422;2023-03-23T01:13:14;98248.41;;;10.96;63.17
77171;BME280;66144;50.020;14.422;2023-03-23T01:15:41;98247.63;;;10.96;64.29
77171;BME280;66144;50.020;14.422;2023-03-23T01:18:07;98247.88;;;10.94;63.66
77171;BME280;66144;50.020;14.422;2023-03-23T01:20:32;98245.00;;;10.91;63.53
77171;BME280;66144;50.020;14.422;2023-03-23T01:22:58;98245.50;;;10.88;63.52
77171;BME280;66144;50.020;14.422;2023-03-23T01:25:30;98246.28;;;10.88;63.83
77171;BME280;66144;50.020;14.422;2023-03-23T01:27:58;98244.19;;;10.85;63.20
77171;BME280;66144;50.020;14.422;2023-03-23T01:30:24;98241.84;;;10.79;63.25
77171;BME280;66144;50.020;14.422;2023-03-23T01:32:50;98243.94;;;10.77;63.88
77171;BME280;66144;50.020;14.422;2023-03-23T01:35:16;98231.16;;;10.75;62.99
77171;BME280;66144;50.020;14.422;2023-03-23T01:37:42;98240.03;;;10.74;63.21
77171;BME280;66144;50.020;14.422;2023-03-23T01:40:08;98224.34;;;10.74;63.53
77171;BME280;66144;50.020;14.422;2023-03-23T01:42:37;98223.81;;;10.67;63.75
77171;BME280;66144;50.020;14.422;2023-03-23T01:45:24;98231.66;;;10.67;64.20
77171;BME280;66144;50.020;14.422;2023-03-23T01:48:02;98220.66;;;10.65;63.43
77171;BME280;66144;50.020;14.422;2023-03-23T01:50:29;98220.16;;;10.63;63.31
77171;BME280;66144;50.020;14.422;2023-03-23T01:52:59;98218.31;;;10.63;64.18
77171;BME280;66144;50.020;14.422;2023-03-23T01:55:27;98213.63;;;10.55;64.58
77171;BME280;66144;50.020;14.422;2023-03-23T01:57:54;98213.09;;;10.53;64.99
77171;BME280;66144;50.020;14.422;2023-03-23T02:00:21;98216.97;;;10.46;65.50
77171;BME280;66144;50.020;14.422;2023-03-23T02:02:48;98210.19;;;10.45;65.23
77171;BME280;66144;50.020;14.422;2023-03-23T02:05:30;98214.13;;;10.37;65.51
77171;BME280;66144;50.020;14.422;2023-03-23T02:07:58;98216.97;;;10.30;65.65
77171;BME280;66144;50.020;14.422;2023-03-23T02:10:31;98218.78;;;10.30;65.71
77171;BME280;66144;50.020;14.422;2023-03-23T02:12:59;98212.78;;;10.29;65.34
77171;BME280;66144;50.020;14.422;2023-03-23T02:15:28;98217.22;;;10.29;65.00
77171;BME280;66144;50.020;14.422;2023-03-23T02:18:09;98208.59;;;10.28;65.68
77171;BME280;66144;50.020;14.422;2023-03-23T02:32:04;98201.84;;;10.43;65.26
77171;BME280;66144;50.020;14.422;2023-03-23T02:34:49;98198.97;;;10.44;64.37
77171;BME280;66144;50.020;14.422;2023-03-23T02:37:28;98202.09;;;10.41;64.29
77171;BME280;66144;50.020;14.422;2023-03-23T02:40:03;98194.25;;;10.41;63.80
77171;BME280;66144;50.020;14.422;2023-03-23T02:42:41;98197.91;;;10.40;64.68
77171;BME280;66144;50.020;14.422;2023-03-23T02:45:10;98190.63;;;10.47;64.39
77171;BME280;66144;50.020;14.422;2023-03-23T02:47:38;98194.28;;;10.51;64.23
77171;BME280;66144;50.020;14.422;2023-03-23T02:50:06;98194.28;;;10.51;64.13
77171;BME280;66144;50.020;14.422;2023-03-23T02:52:34;98192.72;;;10.55;63.97
77171;BME280;66144;50.020;14.422;2023-03-23T02:55:02;98193.53;;;10.56;63.63
77171;BME280;66144;50.020;14.422;2023-03-23T02:57:29;98195.88;;;10.57;63.99
77171;BME280;66144;50.020;14.422;2023-03-23T02:59:55;98198.22;;;10.54;63.79
77171;BME280;66144;50.020;14.422;2023-03-23T03:02:27;98194.81;;;10.48;64.68
77171;BME280;66144;50.020;14.422;2023-03-23T03:05:04;98197.44;;;10.53;64.06
77171;BME280;66144;50.020;14.422;2023-03-23T03:10:46;98193.00;;;10.64;63.61
77171;BME280;66144;50.020;14.422;2023-03-23T03:16:01;98195.06;;;10.62;63.89
77171;BME280;66144;50.020;14.422;2023-03-23T03:18:37;98196.38;;;10.59;63.91
77171;BME280;66144;50.020;14.422;2023-03-23T03:21:09;98200.06;;;10.68;63.45
77171;BME280;66144;50.020;14.422;2023-03-23T03:23:39;98203.97;;;10.71;63.57
77171;BME280;66144;50.020;14.422;2023-03-23T03:26:06;98194.56;;;10.70;63.50
77171;BME280;66144;50.020;14.422;2023-03-23T03:28:35;98195.59;;;10.64;63.48
77171;BME280;66144;50.020;14.422;2023-03-23T03:31:03;98187.50;;;10.65;63.68
77171;BME280;66144;50.020;14.422;2023-03-23T03:33:30;98189.59;;;10.68;63.84
77171;BME280;66144;50.020;14.422;2023-03-23T03:36:02;98193.00;;;10.74;63.50
77171;BME280;66144;50.020;14.422;2023-03-23T03:38:28;98189.88;;;10.77;63.37
77171;BME280;66144;50.020;14.422;2023-03-23T03:40:55;98187.28;;;10.77;63.89
77171;BME280;66144;50.020;14.422;2023-03-23T03:43:21;98190.63;;;10.78;64.66
77171;BME280;66144;50.020;14.422;2023-03-23T03:45:46;98191.72;;;10.77;65.07
77171;BME280;66144;50.020;14.422;2023-03-23T03:48:11;98196.66;;;10.73;65.46
77171;BME280;66144;50.020;14.422;2023-03-23T03:50:37;98200.59;;;10.76;64.57
77171;BME280;66144;50.020;14.422;2023-03-23T03:53:04;98194.06;;;10.73;65.01
77171;BME280;66144;50.020;14.422;2023-03-23T03:55:31;98199.25;;;10.68;65.78
77171;BME280;66144;50.020;14.422;2023-03-23T03:58:00;98204.22;;;10.64;66.84
77171;BME280;66144;50.020;14.422;2023-03-23T04:00:26;98196.66;;;10.68;66.26
77171;BME280;66144;50.020;14.422;2023-03-23T04:02:51;98194.81;;;10.63;66.30
77171;BME280;66144;50.020;14.422;2023-03-23T04:05:21;98199.00;;;10.64;66.54
77171;BME280;66144;50.020;14.422;2023-03-23T04:07:47;98204.22;;;10.64;66.74
77171;BME280;66144;50.020;14.422;2023-03-23T04:10:18;98192.47;;;10.62;65.46
77171;BME280;66144;50.020;14.422;2023-03-23T04:12:47;98191.44;;;10.58;66.02
77171;BME280;66144;50.020;14.422;2023-03-23T04:15:12;98189.31;;;10.50;65.71
77171;BME280;66144;50.020;14.422;2023-03-23T04:17:39;98195.84;;;10.62;64.20
77171;BME280;66144;50.020;14.422;2023-03-23T04:20:06;98200.56;;;10.65;63.63
77171;BME280;66144;50.020;14.422;2023-03-23T04:22:37;98199.28;;;10.73;63.90
77171;BME280;66144;50.020;14.422;2023-03-23T04:25:03;98194.56;;;10.75;62.94
77171;BME280;66144;50.020;14.422;2023-03-23T04:27:31;98196.91;;;10.87;63.15
77171;BME280;66144;50.020;14.422;2023-03-23T04:29:57;98199.81;;;10.95;62.54
77171;BME280;66144;50.020;14.422;2023-03-23T04:32:26;98207.88;;;10.99;63.22
77171;BME280;66144;50.020;14.422;2023-03-23T04:34:57;98208.16;;;11.02;63.09
77171;BME280;66144;50.020;14.422;2023-03-23T04:37:26;98198.47;;;11.03;62.33
77171;BME280;66144;50.020;14.422;2023-03-23T04:39:57;98201.63;;;11.10;62.33
77171;BME280;66144;50.020;14.422;2023-03-23T04:42:30;98196.38;;;11.05;62.44
77171;BME280;66144;50.020;14.422;2023-03-23T04:44:57;98198.75;;;11.06;61.84
77171;BME280;66144;50.020;14.422;2023-03-23T04:47:24;98192.22;;;11.04;61.95
77171;BME280;66144;50.020;14.422;2023-03-23T04:49:49;98196.66;;;11.14;61.53
77171;BME280;66144;50.020;14.422;2023-03-23T04:52:16;98194.53;;;11.21;61.72
77171;BME280;66144;50.020;14.422;2023-03-23T04:54:42;98196.88;;;11.27;61.36
77171;BME280;66144;50.020;14.422;2023-03-23T04:57:08;98199.75;;;11.26;61.36
77171;BME280;66144;50.020;14.422;2023-03-23T04:59:34;98197.16;;;11.31;61.22
77171;BME280;66144;50.020;14.422;2023-03-23T05:01:59;98204.47;;;11.29;60.97
77171;BME280;66144;50.020;14.422;2023-03-23T05:04:25;98207.34;;;11.27;61.40
77171;BME280;66144;50.020;14.422;2023-03-23T05:06:51;98203.16;;;11.31;61.31
77171;BME280;66144;50.020;14.422;2023-03-23T05:09:16;98206.03;;;11.30;60.68
77171;BME280;66144;50.020;14.422;2023-03-23T05:11:42;98211.78;;;11.32;61.12
77171;BME280;66144;50.020;14.422;2023-03-23T05:14:08;98218.03;;;11.36;61.32
77171;BME280;66144;50.020;14.422;2023-03-23T05:16:33;98214.13;;;11.38;60.97
77171;BME280;66144;50.020;14.422;2023-03-23T05:19:01;98215.94;;;11.38;60.67
77171;BME280;66144;50.020;14.422;2023-03-23T05:21:27;98211.22;;;11.40;60.70
77171;BME280;66144;50.020;14.422;2023-03-23T05:23:53;98217.25;;;11.46;61.11
77171;BME280;66144;50.020;14.422;2023-03-23T05:26:21;98215.16;;;11.48;60.34
77171;BME280;66144;50.020;14.422;2023-03-23T05:28:47;98210.72;;;11.48;59.92
77171;BME280;66144;50.020;14.422;2023-03-23T05:31:13;98213.81;;;11.55;59.89
77171;BME280;66144;50.020;14.422;2023-03-23T05:33:39;98218.50;;;11.58;59.30
77171;BME280;66144;50.020;14.422;2023-03-23T05:36:04;98211.72;;;11.67;59.45
77171;BME280;66144;50.020;14.422;2023-03-23T05:38:32;98205.94;;;11.70;60.07
77171;BME280;66144;50.020;14.422;2023-03-23T05:41:01;98194.69;;;11.70;58.98
77171;BME280;66144;50.020;14.422;2023-03-23T05:43:27;98189.72;;;11.73;58.73
77171;BME280;66144;50.020;14.422;2023-03-23T05:45:52;98196.75;;;11.83;58.41
77171;BME280;66144;50.020;14.422;2023-03-23T05:48:17;98209.06;;;11.88;58.10
77171;BME280;66144;50.020;14.422;2023-03-23T05:50:43;98207.97;;;11.94;58.09
77171;BME280;66144;50.020;14.422;2023-03-23T05:53:08;98211.06;;;12.06;58.35
77171;BME280;66144;50.020;14.422;2023-03-23T05:55:35;98205.31;;;12.04;57.84
77171;BME280;66144;50.020;14.422;2023-03-23T05:58:00;98200.53;;;12.16;57.84
77171;BME280;66144;50.020;14.422;2023-03-23T06:00:26;98203.66;;;12.23;57.63
77171;BME280;66144;50.020;14.422;2023-03-23T06:02:55;98202.84;;;12.28;57.56
77171;BME280;66144;50.020;14.422;2023-03-23T06:05:21;98195.50;;;12.30;57.30
77171;BME280;66144;50.020;14.422;2023-03-23T06:07:47;98190.72;;;12.37;57.30
77171;BME280;66144;50.020;14.422;2023-03-23T06:10:13;98194.66;;;12.34;56.94
77171;BME280;66144;50.020;14.422;2023-03-23T06:12:40;98189.63;;;12.48;56.93
77171;BME280;66144;50.020;14.422;2023-03-23T06:15:06;98186.16;;;12.53;56.39
77171;BME280;66144;50.020;14.422;2023-03-23T06:17:33;98177.22;;;12.59;56.29
77171;BME280;66144;50.020;14.422;2023-03-23T06:19:59;98177.19;;;12.64;55.90
77171;BME280;66144;50.020;14.422;2023-03-23T06:22:25;98176.31;;;12.73;56.02
77171;BME280;66144;50.020;14.422;2023-03-23T06:24:50;98177.06;;;12.79;55.38
77171;BME280;66144;50.020;14.422;2023-03-23T06:27:16;98174.16;;;12.86;54.99
77171;BME280;66144;50.020;14.422;2023-03-23T06:29:42;98175.09;;;12.95;55.47
77171;BME280;66144;50.020;14.422;2023-03-23T06:32:10;98182.94;;;13.00;54.81
77171;BME280;66144;50.020;14.422;2023-03-23T06:34:36;98186.31;;;13.05;54.91
77171;BME280;66144;50.020;14.422;2023-03-23T06:37:02;98184.13;;;13.12;54.61
77171;BME280;66144;50.020;14.422;2023-03-23T06:39:28;98182.56;;;13.11;55.00
77171;BME280;66144;50.020;14.422;2023-03-23T06:41:53;98189.09;;;13.19;54.26
77171;BME280;66144;50.020;14.422;2023-03-23T06:44:18;98188.25;;;13.24;54.56
77171;BME280;66144;50.020;14.422;2023-03-23T06:46:44;98187.72;;;13.27;53.71
77171;BME280;66144;50.020;14.422;2023-03-23T06:49:09;98187.09;;;13.35;53.54
77171;BME280;66144;50.020;14.422;2023-03-23T06:51:35;98194.91;;;13.40;53.32
77171;BME280;66144;50.020;14.422;2023-03-23T06:54:02;98193.03;;;13.45;53.76
77171;BME280;66144;50.020;14.422;2023-03-23T06:56:28;98195.59;;;13.51;53.23
77171;BME280;66144;50.020;14.422;2023-03-23T06:58:55;98197.41;;;13.50;52.94
77171;BME280;66144;50.020;14.422;2023-03-23T07:01:20;98198.97;;;13.51;52.80
77171;BME280;66144;50.020;14.422;2023-03-23T07:03:46;98202.06;;;13.58;53.04
77171;BME280;66144;50.020;14.422;2023-03-23T07:06:11;98203.88;;;13.63;52.75
77171;BME280;66144;50.020;14.422;2023-03-23T07:08:37;98206.22;;;13.64;52.94
77171;BME280;66144;50.020;14.422;2023-03-23T07:11:03;98207.19;;;13.68;52.37
77171;BME280;66144;50.020;14.422;2023-03-23T07:13:29;98202.41;;;13.75;52.56
77171;BME280;66144;50.020;14.422;2023-03-23T07:15:55;98209.66;;;13.83;52.34
77171;BME280;66144;50.020;14.422;2023-03-23T07:18:20;98212.75;;;13.86;52.07
77171;BME280;66144;50.020;14.422;2023-03-23T07:20:50;98207.97;;;13.93;51.98
77171;BME280;66144;50.020;14.422;2023-03-23T07:23:17;98207.06;;;14.02;51.86
77171;BME280;66144;50.020;14.422;2023-03-23T07:25:43;98212.75;;;14.09;52.49
77171;BME280;66144;50.020;14.422;2023-03-23T07:28:09;98216.59;;;14.17;51.83
77171;BME280;66144;50.020;14.422;2023-03-23T07:30:34;98223.28;;;14.28;50.80
77171;BME280;66144;50.020;14.422;2023-03-23T07:33:04;98228.94;;;14.40;51.09
77171;BME280;66144;50.020;14.422;2023-03-23T07:35:31;98220.00;;;14.41;50.89
77171;BME280;66144;50.020;14.422;2023-03-23T07:37:56;98218.78;;;14.52;50.81
77171;BME280;66144;50.020;14.422;2023-03-23T07:40:22;98223.69;;;14.59;50.14
77171;BME280;66144;50.020;14.422;2023-03-23T07:42:55;98221.25;;;14.63;49.62
77171;BME280;66144;50.020;14.422;2023-03-23T07:45:21;98209.44;;;14.79;49.65
77171;BME280;66144;50.020;14.422;2023-03-23T07:47:47;98209.34;;;14.84;49.13
77171;BME280;66144;50.020;14.422;2023-03-23T07:50:12;98203.38;;;14.97;48.82
77171;BME280;66144;50.020;14.422;2023-03-23T07:52:39;98211.75;;;14.99;48.90
77171;BME280;66144;50.020;14.422;2023-03-23T07:55:06;98213.16;;;15.10;48.85
77171;BME280;66144;50.020;14.422;2023-03-23T07:57:31;98203.47;;;15.06;48.33
77171;BME280;66144;50.020;14.422;2023-03-23T07:59:58;98208.47;;;15.21;48.45
77171;BME280;66144;50.020;14.422;2023-03-23T08:02:24;98207.03;;;15.29;48.05
77171;BME280;66144;50.020;14.422;2023-03-23T08:04:50;98203.25;;;15.35;48.73
77171;BME280;66144;50.020;14.422;2023-03-23T08:07:16;98199.94;;;15.43;48.07
77171;BME280;66144;50.020;14.422;2023-03-23T08:09:43;98199.47;;;15.54;48.16
77171;BME280;66144;50.020;14.422;2023-03-23T08:12:09;98207.91;;;15.57;47.38
77171;BME280;66144;50.020;14.422;2023-03-23T08:14:35;98192.69;;;15.67;46.98
77171;BME280;66144;50.020;14.422;2023-03-23T08:17:00;98196.50;;;15.75;47.24
77171;BME280;66144;50.020;14.422;2023-03-23T08:19:26;98192.66;;;15.95;47.02
77171;BME280;66144;50.020;14.422;2023-03-23T08:21:52;98203.00;;;16.05;46.04
77171;BME280;66144;50.020;14.422;2023-03-23T08:24:17;98202.59;;;16.11;46.31
77171;BME280;66144;50.020;14.422;2023-03-23T08:26:44;98205.88;;;16.17;46.11
77171;BME280;66144;50.020;14.422;2023-03-23T08:29:09;98212.50;;;16.28;46.84
77171;BME280;66144;50.020;14.422;2023-03-23T08:31:35;98208.81;;;16.29;46.26
77171;BME280;66144;50.020;14.422;2023-03-23T08:34:04;98208.66;;;16.48;46.16
77171;BME280;66144;50.020;14.422;2023-03-23T08:36:31;98214.81;;;16.43;45.78
77171;BME280;66144;50.020;14.422;2023-03-23T08:38:57;98205.44;;;16.51;45.78
77171;BME280;66144;50.020;14.422;2023-03-23T08:41:23;98209.31;;;16.53;44.77
77171;BME280;66144;50.020;14.422;2023-03-23T08:43:49;98196.91;;;16.68;44.12
77171;BME280;66144;50.020;14.422;2023-03-23T08:46:14;98191.50;;;16.59;44.73
77171;BME280;66144;50.020;14.422;2023-03-23T08:48:40;98197.91;;;16.80;44.49
77171;BME280;66144;50.020;14.422;2023-03-23T08:51:06;98196.31;;;16.93;44.07
77171;BME280;66144;50.020;14.422;2023-03-23T08:53:32;98196.63;;;17.00;44.72
77171;BME280;66144;50.020;14.422;2023-03-23T08:56:03;98198.88;;;17.15;43.96
77171;BME280;66144;50.020;14.422;2023-03-23T08:58:29;98197.81;;;17.16;43.78
77171;BME280;66144;50.020;14.422;2023-03-23T09:00:54;98187.34;;;17.34;44.22
77171;BME280;66144;50.020;14.422;2023-03-23T09:03:20;98188.41;;;17.33;44.03
77171;BME280;66144;50.020;14.422;2023-03-23T09:05:45;98191.41;;;17.40;44.13
77171;BME280;66144;50.020;14.422;2023-03-23T09:08:11;98187.09;;;17.44;43.49
77171;BME280;66144;50.020;14.422;2023-03-23T09:10:37;98188.97;;;17.52;43.61
77171;BME280;66144;50.020;14.422;2023-03-23T09:13:04;98180.69;;;17.67;43.16
77171;BME280;66144;50.020;14.422;2023-03-23T09:15:30;98177.88;;;17.72;43.23
77171;BME280;66144;50.020;14.422;2023-03-23T09:17:56;98175.91;;;17.86;44.34
77171;BME280;66144;50.020;14.422;2023-03-23T09:20:24;98183.06;;;17.94;42.84
77171;BME280;66144;50.020;14.422;2023-03-23T09:22:52;98180.44;;;18.03;43.18
77171;BME280;66144;50.020;14.422;2023-03-23T09:25:19;98178.25;;;17.88;42.60
77171;BME280;66144;50.020;14.422;2023-03-23T09:27:49;98179.84;;;18.06;42.61
77171;BME280;66144;50.020;14.422;2023-03-23T09:30:20;98161.16;;;18.28;42.41
77171;BME280;66144;50.020;14.422;2023-03-23T09:32:46;98173.94;;;18.44;41.68
77171;BME280;66144;50.020;14.422;2023-03-23T09:35:14;98167.59;;;18.62;40.97
77171;BME280;66144;50.020;14.422;2023-03-23T09:37:42;98173.47;;;18.76;41.22
77171;BME280;66144;50.020;14.422;2023-03-23T09:40:15;98161.44;;;18.96;40.59
77171;BME280;66144;50.020;14.422;2023-03-23T09:46:29;98170.94;;;19.52;38.91
77171;BME280;66144;50.020;14.422;2023-03-23T09:53:51;98163.41;;;19.92;38.01
77171;BME280;66144;50.020;14.422;2023-03-23T09:56:19;98167.91;;;19.92;38.34
77171;BME280;66144;50.020;14.422;2023-03-23T10:01:33;98186.97;;;19.56;38.77
77171;BME280;66144;50.020;14.422;2023-03-23T10:04:28;98189.78;;;19.51;38.67
77171;BME280;66144;50.020;14.422;2023-03-23T10:07:05;98184.38;;;19.39;38.06
77171;BME280;66144;50.020;14.422;2023-03-23T10:09:31;98205.31;;;19.23;38.74
77171;BME280;66144;50.020;14.422;2023-03-23T10:17:29;98190.88;;;18.86;38.05
77171;BME280;66144;50.020;14.422;2023-03-23T10:22:51;98192.16;;;18.80;38.79
77171;BME280;66144;50.020;14.422;2023-03-23T10:25:24;98185.59;;;18.86;38.62
77171;BME280;66144;50.020;14.422;2023-03-23T10:28:05;98192.94;;;18.80;38.44
77171;BME280;66144;50.020;14.422;2023-03-23T10:30:40;98189.66;;;18.83;38.44
77171;BME280;66144;50.020;14.422;2023-03-23T10:33:24;98182.34;;;18.80;38.16
77171;BME280;66144;50.020;14.422;2023-03-23T10:38:28;98182.50;;;18.84;38.36
77171;BME280;66144;50.020;14.422;2023-03-23T10:41:01;98181.06;;;18.86;38.02
77171;BME280;66144;50.020;14.422;2023-03-23T10:43:30;98188.06;;;18.91;38.57
77171;BME280;66144;50.020;14.422;2023-03-23T10:46:02;98187.91;;;18.96;38.27
77171;BME280;66144;50.020;14.422;2023-03-23T10:48:35;98189.59;;;19.09;38.12
77171;BME280;66144;50.020;14.422;2023-03-23T10:51:03;98186.47;;;19.07;38.09
77171;BME280;66144;50.020;14.422;2023-03-23T10:53:36;98181.47;;;19.14;38.09
77171;BME280;66144;50.020;14.422;2023-03-23T10:56:03;98189.44;;;19.14;38.49
77171;BME280;66144;50.020;14.422;2023-03-23T10:58:34;98183.38;;;19.05;37.99
77171;BME280;66144;50.020;14.422;2023-03-23T11:01:01;98177.75;;;19.07;38.71
77171;BME280;66144;50.020;14.422;2023-03-23T11:03:42;98181.69;;;19.01;38.10
77171;BME280;66144;50.020;14.422;2023-03-23T11:06:11;98190.41;;;19.01;38.78
77171;BME280;66144;50.020;14.422;2023-03-23T11:08:54;98193.34;;;19.08;38.68
77171;BME280;66144;50.020;14.422;2023-03-23T11:11:32;98190.81;;;19.20;39.06
77171;BME280;66144;50.020;14.422;2023-03-23T11:14:25;98191.09;;;19.27;38.67
77171;BME280;66144;50.020;14.422;2023-03-23T11:16:57;98195.63;;;19.27;38.59
77171;BME280;66144;50.020;14.422;2023-03-23T11:19:29;98196.38;;;19.36;38.59
77171;BME280;66144;50.020;14.422;2023-03-23T11:22:26;98208.16;;;19.47;38.37
77171;BME280;66144;50.020;14.422;2023-03-23T11:24:56;98172.16;;;19.46;38.27
77171;BME280;66144;50.020;14.422;2023-03-23T11:27:24;98191.38;;;19.35;38.51
77171;BME280;66144;50.020;14.422;2023-03-23T11:29:54;98192.78;;;19.41;38.63
77171;BME280;66144;50.020;14.422;2023-03-23T11:32:27;98182.78;;;19.55;39.17
77171;BME280;66144;50.020;14.422;2023-03-23T11:34:58;98180.44;;;19.53;38.63
77171;BME280;66144;50.020;14.422;2023-03-23T11:37:41;98187.75;;;19.48;38.88
77171;BME280;66144;50.020;14.422;2023-03-23T11:42:41;98183.69;;;19.59;39.01
77171;BME280;66144;50.020;14.422;2023-03-23T11:45:20;98181.19;;;19.62;38.96
77171;BME280;66144;50.020;14.422;2023-03-23T11:48:22;98177.31;;;19.60;38.51
77171;BME280;66144;50.020;14.422;2023-03-23T11:51:05;98183.31;;;19.69;38.89
77171;BME280;66144;50.020;14.422;2023-03-23T11:58:33;98162.22;;;19.52;38.44
77171;BME280;66144;50.020;14.422;2023-03-23T12:01:05;98168.13;;;19.57;39.05
77171;BME280;66144;50.020;14.422;2023-03-23T12:06:32;98162.22;;;19.81;38.76
77171;BME280;66144;50.020;14.422;2023-03-23T12:09:15;98168.88;;;19.87;39.33
77171;BME280;66144;50.020;14.422;2023-03-23T12:12:02;98165.31;;;19.83;38.97
77171;BME280;66144;50.020;14.422;2023-03-23T12:23:03;98150.72;;;19.77;38.67
77171;BME280;66144;50.020;14.422;2023-03-23T12:25:55;98161.81;;;19.71;37.90
77171;BME280;66144;50.020;14.422;2023-03-23T12:34:19;98168.44;;;19.47;39.05
77171;BME280;66144;50.020;14.422;2023-03-23T12:39:57;98181.44;;;19.31;40.03
77171;BME280;66144;50.020;14.422;2023-03-23T12:48:00;98180.59;;;19.02;40.04
77171;BME280;66144;50.020;14.422;2023-03-23T12:53:31;98171.41;;;18.90;40.56
77171;BME280;66144;50.020;14.422;2023-03-23T12:58:33;98168.19;;;18.85;40.46
77171;BME280;66144;50.020;14.422;2023-03-23T13:01:10;98171.91;;;18.84;41.06
77171;BME280;66144;50.020;14.422;2023-03-23T13:03:58;98162.41;;;18.83;41.14
77171;BME280;66144;50.020;14.422;2023-03-23T13:09:15;98166.47;;;18.72;40.93
77171;BME280;66144;50.020;14.422;2023-03-23T13:11:43;98163.84;;;18.63;41.30
77171;BME280;66144;50.020;14.422;2023-03-23T13:22:27;98160.84;;;18.47;42.03
77171;BME280;66144;50.020;14.422;2023-03-23T13:25:00;98160.69;;;18.52;41.86
77171;BME280;66144;50.020;14.422;2023-03-23T13:27:28;98160.22;;;18.50;41.91
77171;BME280;66144;50.020;14.422;2023-03-23T13:29:56;98163.38;;;18.44;42.00
77171;BME280;66144;50.020;14.422;2023-03-23T13:32:34;98156.22;;;18.44;42.16
77171;BME280;66144;50.020;14.422;2023-03-23T13:35:02;98168.03;;;18.47;41.77
77171;BME280;66144;50.020;14.422;2023-03-23T13:37:29;98166.47;;;18.37;42.09
77171;BME280;66144;50.020;14.422;2023-03-23T13:42:54;98158.69;;;18.41;42.82
77171;BME280;66144;50.020;14.422;2023-03-23T13:45:24;98163.22;;;18.40;42.33
77171;BME280;66144;50.020;14.422;2023-03-23T13:53:46;98163.81;;;18.37;42.93
77171;BME280;66144;50.020;14.422;2023-03-23T13:56:19;98160.56;;;18.40;42.92
77171;BME280;66144;50.020;14.422;2023-03-23T14:01:15;98161.03;;;18.42;42.81
77171;BME280;66144;50.020;14.422;2023-03-23T14:03:44;98154.03;;;18.46;43.69
77171;BME280;66144;50.020;14.422;2023-03-23T14:06:17;98155.44;;;18.35;42.97
77171;BME280;66144;50.020;14.422;2023-03-23T14:08:46;98168.66;;;18.35;43.36
77171;BME280;66144;50.020;14.422;2023-03-23T14:11:26;98165.84;;;18.40;43.26
77171;BME280;66144;50.020;14.422;2023-03-23T14:14:03;98161.03;;;18.34;43.29
77171;BME280;66144;50.020;14.422;2023-03-23T14:16:39;98162.44;;;18.40;43.38
77171;BME280;66144;50.020;14.422;2023-03-23T14:19:19;98163.69;;;18.42;43.40
77171;BME280;66144;50.020;14.422;2023-03-23T14:21:55;98159.47;;;18.41;43.66
77171;BME280;66144;50.020;14.422;2023-03-23T14:24:25;98162.75;;;18.38;43.81
77171;BME280;66144;50.020;14.422;2023-03-23T14:26:52;98155.91;;;18.46;44.65
77171;BME280;66144;50.020;14.422;2023-03-23T14:29:20;98158.84;;;18.44;44.46
77171;BME280;66144;50.020;14.422;2023-03-23T14:31:50;98157.28;;;18.35;45.39
77171;BME280;66144;50.020;14.422;2023-03-23T14:34:20;98165.53;;;18.42;45.57
77171;BME280;66144;50.020;14.422;2023-03-23T14:36:46;98159.63;;;18.36;45.22
77171;BME280;66144;50.020;14.422;2023-03-23T14:39:28;98161.94;;;18.29;44.91
77171;BME280;66144;50.020;14.422;2023-03-23T14:41:55;98162.72;;;18.29;45.44